sensor_id;sensor_type;location;lat;lon;timestamp;P1;durP1;ratioP1;P2;durP2;ratioP2
8632;SDS011;4354;49.832;10.746;2023-02-14T00:00:11;88.67;;;34.33;;
8632;SDS011;4354;49.832;10.746;2023-02-14T00:02:38;78.57;;;33.33;;
8632;SDS011;4354;49.832;10.746;2023-02-14T00:05:05;88.03;;;34.83;;
8632;SDS011;4354;49.832;10.746;2023-02-14T00:07:32;87.00;;;35.27;;
8632;SDS011;4354;49.832;10.746;2023-02-14T00:09:58;89.60;;;35.80;;
8632;SDS011;4354;49.832;10.746;2023-02-14T00:12:25;85.63;;;35.17;;
8632;SDS011;4354;49.832;10.746;2023-02-14T00:14:52;89.07;;;33.63;;
8632;SDS011;4354;49.832;10.746;2023-02-14T00:17:37;82.50;;;33.07;;
8632;SDS011;4354;49.832;10.746;2023-02-14T00:20:04;92.13;;;34.57;;
8632;SDS011;4354;49.832;10.746;2023-02-14T00:22:31;87.33;;;34.17;;
8632;SDS011;4354;49.832;10.746;2023-02-14T00:24:57;89.07;;;35.67;;
8632;SDS011;4354;49.832;10.746;2023-02-14T00:27:24;88.67;;;34.73;;
8632;SDS011;4354;49.832;10.746;2023-02-14T00:29:51;83.53;;;33.40;;
8632;SDS011;4354;49.832;10.746;2023-02-14T00:32:19;76.00;;;31.73;;
8632;SDS011;4354;49.832;10.746;2023-02-14T00:34:46;94.63;;;37.03;;
8632;SDS011;4354;49.832;10.746;2023-02-14T00:37:13;86.27;;;35.43;;
8632;SDS011;4354;49.832;10.746;2023-02-14T00:39:39;84.17;;;34.90;;
8632;SDS011;4354;49.832;10.746;2023-02-14T00:42:06;85.37;;;34.83;;
8632;SDS011;4354;49.832;10.746;2023-02-14T00:44:33;84.77;;;34.63;;
8632;SDS011;4354;49.832;10.746;2023-02-14T00:46:59;93.33;;;36.60;;
8632;SDS011;4354;49.832;10.746;2023-02-14T00:49:26;96.30;;;35.77;;
8632;SDS011;4354;49.832;10.746;2023-02-14T00:51:53;89.00;;;36.20;;
8632;SDS011;4354;49.832;10.746;2023-02-14T00:54:20;90.00;;;35.40;;
8632;SDS011;4354;49.832;10.746;2023-02-14T00:56:46;94.70;;;37.70;;
8632;SDS011;4354;49.832;10.746;2023-02-14T00:59:13;101.30;;;38.47;;
8632;SDS011;4354;49.832;10.746;2023-02-14T01:01:40;90.60;;;36.00;;
8632;SDS011;4354;49.832;10.746;2023-02-14T01:04:07;91.20;;;35.53;;
8632;SDS011;4354;49.832;10.746;2023-02-14T01:06:34;85.90;;;36.07;;
8632;SDS011;4354;49.832;10.746;2023-02-14T01:09:01;89.07;;;36.00;;
8632;SDS011;4354;49.832;10.746;2023-02-14T01:11:28;95.97;;;37.97;;
8632;SDS011;4354;49.832;10.746;2023-02-14T01:13:56;90.17;;;36.43;;
8632;SDS011;4354;49.832;10.746;2023-02-14T01:16:24;86.57;;;36.50;;
8632;SDS011;4354;49.832;10.746;2023-02-14T01:18:52;92.70;;;38.67;;
8632;SDS011;4354;49.832;10.746;2023-02-14T01:23:52;90.43;;;38.37;;
8632;SDS011;4354;49.832;10.746;2023-02-14T01:26:21;94.13;;;39.37;;
8632;SDS011;4354;49.832;10.746;2023-02-14T01:28:48;93.33;;;37.17;;
8632;SDS011;4354;49.832;10.746;2023-02-14T01:31:16;88.70;;;37.50;;
8632;SDS011;4354;49.832;10.746;2023-02-14T01:33:45;83.60;;;35.63;;
8632;SDS011;4354;49.832;10.746;2023-02-14T01:36:18;92.07;;;36.90;;
8632;SDS011;4354;49.832;10.746;2023-02-14T01:38:53;92.87;;;37.63;;
8632;SDS011;4354;49.832;10.746;2023-02-14T01:41:22;93.30;;;37.60;;
8632;SDS011;4354;49.832;10.746;2023-02-14T01:43:57;92.57;;;37.83;;
8632;SDS011;4354;49.832;10.746;2023-02-14T01:46:27;78.93;;;35.93;;
8632;SDS011;4354;49.832;10.746;2023-02-14T01:49:01;84.10;;;36.20;;
8632;SDS011;4354;49.832;10.746;2023-02-14T01:51:32;86.70;;;38.03;;
8632;SDS011;4354;49.832;10.746;2023-02-14T01:54:01;89.00;;;37.13;;
8632;SDS011;4354;49.832;10.746;2023-02-14T01:56:35;91.40;;;36.70;;
8632;SDS011;4354;49.832;10.746;2023-02-14T01:59:07;87.77;;;37.10;;
8632;SDS011;4354;49.832;10.746;2023-02-14T02:01:37;82.63;;;35.27;;
8632;SDS011;4354;49.832;10.746;2023-02-14T02:04:06;82.80;;;36.03;;
8632;SDS011;4354;49.832;10.746;2023-02-14T02:06:42;70.40;;;33.93;;
8632;SDS011;4354;49.832;10.746;2023-02-14T02:09:14;69.97;;;34.53;;
8632;SDS011;4354;49.832;10.746;2023-02-14T02:12:09;73.30;;;34.47;;
8632;SDS011;4354;49.832;10.746;2023-02-14T02:14:35;64.03;;;30.87;;
8632;SDS011;4354;49.832;10.746;2023-02-14T02:20:23;64.33;;;31.43;;
8632;SDS011;4354;49.832;10.746;2023-02-14T02:29:08;73.97;;;34.30;;
8632;SDS011;4354;49.832;10.746;2023-02-14T02:35:08;65.10;;;31.07;;
8632;SDS011;4354;49.832;10.746;2023-02-14T02:43:43;65.40;;;31.13;;
8632;SDS011;4354;49.832;10.746;2023-02-14T02:49:15;65.83;;;31.40;;
8632;SDS011;4354;49.832;10.746;2023-02-14T02:52:14;68.63;;;31.93;;
8632;SDS011;4354;49.832;10.746;2023-02-14T02:55:12;67.90;;;32.67;;
8632;SDS011;4354;49.832;10.746;2023-02-14T02:57:44;67.43;;;32.40;;
8632;SDS011;4354;49.832;10.746;2023-02-14T03:00:13;66.33;;;32.17;;
8632;SDS011;4354;49.832;10.746;2023-02-14T03:02:49;73.60;;;33.93;;
8632;SDS011;4354;49.832;10.746;2023-02-14T03:05:36;69.13;;;31.17;;
8632;SDS011;4354;49.832;10.746;2023-02-14T03:08:03;68.00;;;32.33;;
8632;SDS011;4354;49.832;10.746;2023-02-14T03:10:32;71.30;;;32.17;;
8632;SDS011;4354;49.832;10.746;2023-02-14T03:13:24;70.47;;;33.47;;
8632;SDS011;4354;49.832;10.746;2023-02-14T03:26:44;71.87;;;33.30;;
8632;SDS011;4354;49.832;10.746;2023-02-14T03:32:41;69.00;;;32.87;;
8632;SDS011;4354;49.832;10.746;2023-02-14T03:40:35;71.10;;;32.87;;
8632;SDS011;4354;49.832;10.746;2023-02-14T03:43:29;70.57;;;31.63;;
8632;SDS011;4354;49.832;10.746;2023-02-14T03:46:07;74.87;;;35.23;;
8632;SDS011;4354;49.832;10.746;2023-02-14T03:48:50;70.80;;;33.23;;
8632;SDS011;4354;49.832;10.746;2023-02-14T03:51:20;69.57;;;33.40;;
8632;SDS011;4354;49.832;10.746;2023-02-14T03:53:50;74.17;;;34.27;;
8632;SDS011;4354;49.832;10.746;2023-02-14T03:56:22;69.67;;;31.73;;
8632;SDS011;4354;49.832;10.746;2023-02-14T03:59:00;72.67;;;34.03;;
8632;SDS011;4354;49.832;10.746;2023-02-14T04:01:45;67.17;;;32.60;;
8632;SDS011;4354;49.832;10.746;2023-02-14T04:04:25;68.50;;;32.60;;
8632;SDS011;4354;49.832;10.746;2023-02-14T04:06:56;70.63;;;32.50;;
8632;SDS011;4354;49.832;10.746;2023-02-14T04:09:22;70.47;;;34.27;;
8632;SDS011;4354;49.832;10.746;2023-02-14T04:11:49;68.83;;;32.43;;
8632;SDS011;4354;49.832;10.746;2023-02-14T04:14:16;62.80;;;31.47;;
8632;SDS011;4354;49.832;10.746;2023-02-14T04:16:43;70.10;;;33.07;;
8632;SDS011;4354;49.832;10.746;2023-02-14T04:22:06;66.90;;;32.43;;
8632;SDS011;4354;49.832;10.746;2023-02-14T04:24:32;65.30;;;31.67;;
8632;SDS011;4354;49.832;10.746;2023-02-14T04:26:59;65.83;;;30.97;;
8632;SDS011;4354;49.832;10.746;2023-02-14T04:32:07;71.13;;;32.80;;
8632;SDS011;4354;49.832;10.746;2023-02-14T04:34:39;67.50;;;30.97;;
8632;SDS011;4354;49.832;10.746;2023-02-14T04:37:06;68.67;;;32.03;;
8632;SDS011;4354;49.832;10.746;2023-02-14T04:39:33;71.00;;;33.50;;
8632;SDS011;4354;49.832;10.746;2023-02-14T04:42:00;69.40;;;33.07;;
8632;SDS011;4354;49.832;10.746;2023-02-14T04:44:28;68.97;;;32.53;;
8632;SDS011;4354;49.832;10.746;2023-02-14T04:46:54;72.10;;;34.53;;
8632;SDS011;4354;49.832;10.746;2023-02-14T04:49:21;79.40;;;35.63;;
8632;SDS011;4354;49.832;10.746;2023-02-14T04:51:48;76.87;;;32.90;;
8632;SDS011;4354;49.832;10.746;2023-02-14T04:54:15;82.40;;;35.40;;
8632;SDS011;4354;49.832;10.746;2023-02-14T04:56:41;79.17;;;35.20;;
8632;SDS011;4354;49.832;10.746;2023-02-14T04:59:08;82.93;;;35.50;;
8632;SDS011;4354;49.832;10.746;2023-02-14T05:01:35;76.17;;;35.13;;
8632;SDS011;4354;49.832;10.746;2023-02-14T05:04:02;91.37;;;37.03;;
8632;SDS011;4354;49.832;10.746;2023-02-14T05:06:29;92.07;;;36.47;;
8632;SDS011;4354;49.832;10.746;2023-02-14T05:08:57;78.60;;;34.90;;
8632;SDS011;4354;49.832;10.746;2023-02-14T05:11:25;86.50;;;37.10;;
8632;SDS011;4354;49.832;10.746;2023-02-14T05:13:52;76.50;;;33.77;;
8632;SDS011;4354;49.832;10.746;2023-02-14T05:16:20;79.60;;;34.90;;
8632;SDS011;4354;49.832;10.746;2023-02-14T05:18:46;75.30;;;33.57;;
8632;SDS011;4354;49.832;10.746;2023-02-14T05:21:13;76.97;;;32.47;;
8632;SDS011;4354;49.832;10.746;2023-02-14T05:23:40;71.60;;;32.97;;
8632;SDS011;4354;49.832;10.746;2023-02-14T05:26:07;96.37;;;41.67;;
8632;SDS011;4354;49.832;10.746;2023-02-14T05:28:34;84.50;;;32.03;;
8632;SDS011;4354;49.832;10.746;2023-02-14T05:31:01;87.70;;;33.90;;
8632;SDS011;4354;49.832;10.746;2023-02-14T05:33:29;85.80;;;36.97;;
8632;SDS011;4354;49.832;10.746;2023-02-14T05:35:57;86.07;;;37.17;;
8632;SDS011;4354;49.832;10.746;2023-02-14T05:38:25;81.13;;;33.80;;
8632;SDS011;4354;49.832;10.746;2023-02-14T05:40:52;84.00;;;34.13;;
8632;SDS011;4354;49.832;10.746;2023-02-14T05:43:19;87.87;;;33.80;;
8632;SDS011;4354;49.832;10.746;2023-02-14T05:45:46;101.20;;;35.10;;
8632;SDS011;4354;49.832;10.746;2023-02-14T05:48:14;80.53;;;32.87;;
8632;SDS011;4354;49.832;10.746;2023-02-14T05:50:40;94.60;;;34.40;;
8632;SDS011;4354;49.832;10.746;2023-02-14T05:53:11;85.70;;;34.30;;
8632;SDS011;4354;49.832;10.746;2023-02-14T05:55:38;86.27;;;33.73;;
8632;SDS011;4354;49.832;10.746;2023-02-14T05:58:06;89.83;;;34.93;;
8632;SDS011;4354;49.832;10.746;2023-02-14T06:00:33;85.57;;;33.27;;
8632;SDS011;4354;49.832;10.746;2023-02-14T06:03:00;98.63;;;33.93;;
8632;SDS011;4354;49.832;10.746;2023-02-14T06:05:26;82.07;;;33.40;;
8632;SDS011;4354;49.832;10.746;2023-02-14T06:07:53;78.03;;;32.37;;
8632;SDS011;4354;49.832;10.746;2023-02-14T06:10:21;89.73;;;33.93;;
8632;SDS011;4354;49.832;10.746;2023-02-14T06:12:50;81.43;;;32.73;;
8632;SDS011;4354;49.832;10.746;2023-02-14T06:15:18;79.87;;;30.80;;
8632;SDS011;4354;49.832;10.746;2023-02-14T06:17:49;78.73;;;31.07;;
8632;SDS011;4354;49.832;10.746;2023-02-14T06:20:23;97.73;;;29.60;;
8632;SDS011;4354;49.832;10.746;2023-02-14T06:22:50;70.37;;;28.87;;
8632;SDS011;4354;49.832;10.746;2023-02-14T06:25:19;88.30;;;30.23;;
8632;SDS011;4354;49.832;10.746;2023-02-14T06:27:46;81.83;;;28.03;;
8632;SDS011;4354;49.832;10.746;2023-02-14T06:30:15;68.13;;;28.23;;
8632;SDS011;4354;49.832;10.746;2023-02-14T06:32:42;67.80;;;28.00;;
8632;SDS011;4354;49.832;10.746;2023-02-14T06:35:09;83.20;;;30.33;;
8632;SDS011;4354;49.832;10.746;2023-02-14T06:37:36;87.13;;;28.60;;
8632;SDS011;4354;49.832;10.746;2023-02-14T06:40:04;126.40;;;30.90;;
8632;SDS011;4354;49.832;10.746;2023-02-14T06:42:31;113.77;;;27.83;;
8632;SDS011;4354;49.832;10.746;2023-02-14T06:44:58;120.73;;;28.43;;
8632;SDS011;4354;49.832;10.746;2023-02-14T06:47:24;88.83;;;29.07;;
8632;SDS011;4354;49.832;10.746;2023-02-14T06:49:51;136.93;;;30.37;;
8632;SDS011;4354;49.832;10.746;2023-02-14T06:52:18;137.97;;;30.27;;
8632;SDS011;4354;49.832;10.746;2023-02-14T06:54:45;100.90;;;29.13;;
8632;SDS011;4354;49.832;10.746;2023-02-14T06:57:12;103.67;;;29.47;;
8632;SDS011;4354;49.832;10.746;2023-02-14T06:59:38;97.77;;;29.93;;
8632;SDS011;4354;49.832;10.746;2023-02-14T07:02:05;89.93;;;29.70;;
8632;SDS011;4354;49.832;10.746;2023-02-14T07:04:32;149.50;;;32.57;;
8632;SDS011;4354;49.832;10.746;2023-02-14T07:06:58;158.60;;;43.60;;
8632;SDS011;4354;49.832;10.746;2023-02-14T07:09:26;100.63;;;31.33;;
8632;SDS011;4354;49.832;10.746;2023-02-14T07:11:53;84.13;;;30.37;;
8632;SDS011;4354;49.832;10.746;2023-02-14T07:14:20;127.60;;;31.03;;
8632;SDS011;4354;49.832;10.746;2023-02-14T07:16:46;148.60;;;35.00;;
8632;SDS011;4354;49.832;10.746;2023-02-14T07:19:13;120.63;;;30.83;;
8632;SDS011;4354;49.832;10.746;2023-02-14T07:21:40;102.07;;;30.53;;
8632;SDS011;4354;49.832;10.746;2023-02-14T07:24:07;84.63;;;26.43;;
8632;SDS011;4354;49.832;10.746;2023-02-14T07:26:34;79.27;;;28.67;;
8632;SDS011;4354;49.832;10.746;2023-02-14T07:29:00;98.83;;;29.87;;
8632;SDS011;4354;49.832;10.746;2023-02-14T07:31:27;87.90;;;30.53;;
8632;SDS011;4354;49.832;10.746;2023-02-14T07:33:54;134.87;;;31.50;;
8632;SDS011;4354;49.832;10.746;2023-02-14T07:36:26;80.87;;;28.67;;
8632;SDS011;4354;49.832;10.746;2023-02-14T07:38:54;75.50;;;29.37;;
8632;SDS011;4354;49.832;10.746;2023-02-14T07:41:21;130.33;;;31.30;;
8632;SDS011;4354;49.832;10.746;2023-02-14T07:43:48;82.23;;;31.20;;
8632;SDS011;4354;49.832;10.746;2023-02-14T07:46:15;88.97;;;34.50;;
8632;SDS011;4354;49.832;10.746;2023-02-14T07:48:42;78.90;;;29.40;;
8632;SDS011;4354;49.832;10.746;2023-02-14T07:51:09;119.43;;;35.40;;
8632;SDS011;4354;49.832;10.746;2023-02-14T07:53:36;120.80;;;33.03;;
8632;SDS011;4354;49.832;10.746;2023-02-14T07:56:03;110.67;;;39.93;;
8632;SDS011;4354;49.832;10.746;2023-02-14T07:58:30;138.17;;;30.70;;
8632;SDS011;4354;49.832;10.746;2023-02-14T08:00:57;164.17;;;31.20;;
8632;SDS011;4354;49.832;10.746;2023-02-14T08:03:24;117.23;;;31.60;;
8632;SDS011;4354;49.832;10.746;2023-02-14T08:05:51;63.83;;;27.60;;
8632;SDS011;4354;49.832;10.746;2023-02-14T08:08:25;70.97;;;30.07;;
8632;SDS011;4354;49.832;10.746;2023-02-14T08:10:54;123.53;;;31.10;;
8632;SDS011;4354;49.832;10.746;2023-02-14T08:13:21;80.43;;;27.77;;
8632;SDS011;4354;49.832;10.746;2023-02-14T08:15:48;143.23;;;31.60;;
8632;SDS011;4354;49.832;10.746;2023-02-14T08:18:31;93.20;;;29.63;;
8632;SDS011;4354;49.832;10.746;2023-02-14T08:21:00;67.27;;;27.53;;
8632;SDS011;4354;49.832;10.746;2023-02-14T08:23:27;66.50;;;27.90;;
8632;SDS011;4354;49.832;10.746;2023-02-14T08:25:55;78.17;;;28.97;;
8632;SDS011;4354;49.832;10.746;2023-02-14T08:28:22;69.90;;;27.20;;
8632;SDS011;4354;49.832;10.746;2023-02-14T08:30:49;95.07;;;29.40;;
8632;SDS011;4354;49.832;10.746;2023-02-14T08:33:17;74.60;;;29.20;;
8632;SDS011;4354;49.832;10.746;2023-02-14T08:35:44;71.90;;;26.80;;
8632;SDS011;4354;49.832;10.746;2023-02-14T08:38:10;76.30;;;27.53;;
8632;SDS011;4354;49.832;10.746;2023-02-14T08:40:37;72.33;;;27.27;;
8632;SDS011;4354;49.832;10.746;2023-02-14T08:43:05;64.43;;;27.67;;
8632;SDS011;4354;49.832;10.746;2023-02-14T08:45:32;68.27;;;27.13;;
8632;SDS011;4354;49.832;10.746;2023-02-14T08:48:00;68.43;;;28.40;;
8632;SDS011;4354;49.832;10.746;2023-02-14T08:50:27;89.70;;;27.57;;
8632;SDS011;4354;49.832;10.746;2023-02-14T08:52:57;68.17;;;28.10;;
8632;SDS011;4354;49.832;10.746;2023-02-14T08:55:24;66.30;;;28.17;;
8632;SDS011;4354;49.832;10.746;2023-02-14T08:57:51;58.93;;;26.50;;
8632;SDS011;4354;49.832;10.746;2023-02-14T09:00:20;64.27;;;27.00;;
8632;SDS011;4354;49.832;10.746;2023-02-14T09:02:50;69.73;;;28.60;;
8632;SDS011;4354;49.832;10.746;2023-02-14T09:05:18;69.27;;;27.17;;
8632;SDS011;4354;49.832;10.746;2023-02-14T09:07:46;59.03;;;26.47;;
8632;SDS011;4354;49.832;10.746;2023-02-14T09:10:13;60.80;;;27.17;;
8632;SDS011;4354;49.832;10.746;2023-02-14T09:12:40;56.13;;;25.70;;
8632;SDS011;4354;49.832;10.746;2023-02-14T09:15:08;66.10;;;27.60;;
8632;SDS011;4354;49.832;10.746;2023-02-14T09:17:36;64.53;;;26.87;;
8632;SDS011;4354;49.832;10.746;2023-02-14T09:20:07;60.93;;;27.20;;
8632;SDS011;4354;49.832;10.746;2023-02-14T09:22:35;60.47;;;26.33;;
8632;SDS011;4354;49.832;10.746;2023-02-14T09:25:02;57.00;;;25.23;;
8632;SDS011;4354;49.832;10.746;2023-02-14T09:27:29;59.13;;;26.90;;
8632;SDS011;4354;49.832;10.746;2023-02-14T09:29:57;56.17;;;26.50;;
8632;SDS011;4354;49.832;10.746;2023-02-14T09:32:24;61.97;;;29.27;;
8632;SDS011;4354;49.832;10.746;2023-02-14T09:34:52;60.70;;;28.77;;
8632;SDS011;4354;49.832;10.746;2023-02-14T09:37:19;64.10;;;29.07;;
8632;SDS011;4354;49.832;10.746;2023-02-14T09:40:04;70.53;;;30.10;;
8632;SDS011;4354;49.832;10.746;2023-02-14T09:45:32;63.27;;;27.73;;
8632;SDS011;4354;49.832;10.746;2023-02-14T09:51:01;59.23;;;25.83;;
8632;SDS011;4354;49.832;10.746;2023-02-14T09:53:31;52.10;;;24.97;;
8632;SDS011;4354;49.832;10.746;2023-02-14T09:59:24;65.23;;;32.10;;
8632;SDS011;4354;49.832;10.746;2023-02-14T10:05:01;60.60;;;28.17;;
8632;SDS011;4354;49.832;10.746;2023-02-14T10:07:35;67.07;;;28.47;;
8632;SDS011;4354;49.832;10.746;2023-02-14T10:13:29;59.13;;;28.27;;
8632;SDS011;4354;49.832;10.746;2023-02-14T10:16:09;67.90;;;28.87;;
8632;SDS011;4354;49.832;10.746;2023-02-14T10:18:51;54.30;;;26.07;;
8632;SDS011;4354;49.832;10.746;2023-02-14T10:21:41;58.17;;;26.80;;
8632;SDS011;4354;49.832;10.746;2023-02-14T10:24:15;51.73;;;24.90;;
8632;SDS011;4354;49.832;10.746;2023-02-14T10:29:47;49.93;;;23.80;;
8632;SDS011;4354;49.832;10.746;2023-02-14T10:32:16;48.63;;;25.23;;
8632;SDS011;4354;49.832;10.746;2023-02-14T10:34:50;54.30;;;26.53;;
8632;SDS011;4354;49.832;10.746;2023-02-14T10:42:42;62.50;;;32.20;;
8632;SDS011;4354;49.832;10.746;2023-02-14T10:45:22;71.57;;;36.53;;
8632;SDS011;4354;49.832;10.746;2023-02-14T10:56:37;59.57;;;29.80;;
8632;SDS011;4354;49.832;10.746;2023-02-14T11:01:51;48.07;;;25.23;;
8632;SDS011;4354;49.832;10.746;2023-02-14T11:04:20;46.67;;;25.00;;
8632;SDS011;4354;49.832;10.746;2023-02-14T11:06:49;46.30;;;24.23;;
8632;SDS011;4354;49.832;10.746;2023-02-14T11:09:17;47.63;;;24.80;;
8632;SDS011;4354;49.832;10.746;2023-02-14T11:11:46;50.87;;;25.47;;
8632;SDS011;4354;49.832;10.746;2023-02-14T11:14:29;50.17;;;24.67;;
8632;SDS011;4354;49.832;10.746;2023-02-14T11:16:58;51.37;;;26.93;;
8632;SDS011;4354;49.832;10.746;2023-02-14T11:19:30;50.10;;;25.60;;
8632;SDS011;4354;49.832;10.746;2023-02-14T11:22:03;50.57;;;25.57;;
8632;SDS011;4354;49.832;10.746;2023-02-14T11:24:37;50.83;;;25.67;;
8632;SDS011;4354;49.832;10.746;2023-02-14T11:27:13;52.40;;;26.17;;
8632;SDS011;4354;49.832;10.746;2023-02-14T11:29:45;49.10;;;24.90;;
8632;SDS011;4354;49.832;10.746;2023-02-14T11:32:21;46.40;;;24.83;;
8632;SDS011;4354;49.832;10.746;2023-02-14T11:37:48;51.93;;;25.67;;
8632;SDS011;4354;49.832;10.746;2023-02-14T11:40:35;49.53;;;25.73;;
8632;SDS011;4354;49.832;10.746;2023-02-14T11:45:43;45.20;;;23.97;;
8632;SDS011;4354;49.832;10.746;2023-02-14T11:56:14;51.20;;;24.17;;
8632;SDS011;4354;49.832;10.746;2023-02-14T12:01:19;46.40;;;23.13;;
8632;SDS011;4354;49.832;10.746;2023-02-14T12:03:49;51.07;;;23.87;;
8632;SDS011;4354;49.832;10.746;2023-02-14T12:06:21;55.07;;;27.67;;
8632;SDS011;4354;49.832;10.746;2023-02-14T12:08:50;50.97;;;25.23;;
8632;SDS011;4354;49.832;10.746;2023-02-14T12:11:21;51.23;;;24.93;;
8632;SDS011;4354;49.832;10.746;2023-02-14T12:13:52;47.17;;;25.30;;
8632;SDS011;4354;49.832;10.746;2023-02-14T12:16:26;53.20;;;28.03;;
8632;SDS011;4354;49.832;10.746;2023-02-14T12:19:15;50.37;;;26.53;;
8632;SDS011;4354;49.832;10.746;2023-02-14T12:24:26;47.00;;;25.23;;
8632;SDS011;4354;49.832;10.746;2023-02-14T12:32:11;53.73;;;26.57;;
8632;SDS011;4354;49.832;10.746;2023-02-14T12:34:46;54.23;;;28.67;;
8632;SDS011;4354;49.832;10.746;2023-02-14T12:37:16;43.87;;;24.87;;
8632;SDS011;4354;49.832;10.746;2023-02-14T12:45:08;51.13;;;27.70;;
8632;SDS011;4354;49.832;10.746;2023-02-14T12:50:19;45.73;;;24.60;;
8632;SDS011;4354;49.832;10.746;2023-02-14T13:01:41;47.17;;;25.83;;
8632;SDS011;4354;49.832;10.746;2023-02-14T13:04:34;42.70;;;24.00;;
8632;SDS011;4354;49.832;10.746;2023-02-14T13:07:22;40.37;;;23.67;;
8632;SDS011;4354;49.832;10.746;2023-02-14T13:10:34;45.90;;;25.23;;
8632;SDS011;4354;49.832;10.746;2023-02-14T13:13:21;45.10;;;22.77;;
8632;SDS011;4354;49.832;10.746;2023-02-14T13:16:19;45.40;;;24.10;;
8632;SDS011;4354;49.832;10.746;2023-02-14T13:18:52;42.63;;;22.27;;
8632;SDS011;4354;49.832;10.746;2023-02-14T13:21:25;45.37;;;24.50;;
8632;SDS011;4354;49.832;10.746;2023-02-14T13:24:00;40.13;;;22.63;;
8632;SDS011;4354;49.832;10.746;2023-02-14T13:26:51;48.57;;;26.53;;
8632;SDS011;4354;49.832;10.746;2023-02-14T13:29:22;39.23;;;22.80;;
8632;SDS011;4354;49.832;10.746;2023-02-14T13:31:53;35.70;;;21.07;;
8632;SDS011;4354;49.832;10.746;2023-02-14T13:34:27;37.00;;;21.77;;
8632;SDS011;4354;49.832;10.746;2023-02-14T13:36:59;32.10;;;19.33;;
8632;SDS011;4354;49.832;10.746;2023-02-14T13:42:49;36.60;;;22.20;;
8632;SDS011;4354;49.832;10.746;2023-02-14T13:48:12;36.90;;;20.87;;
8632;SDS011;4354;49.832;10.746;2023-02-14T13:51:00;32.50;;;20.13;;
8632;SDS011;4354;49.832;10.746;2023-02-14T13:53:30;38.07;;;23.77;;
8632;SDS011;4354;49.832;10.746;2023-02-14T14:17:41;38.70;;;23.83;;
8632;SDS011;4354;49.832;10.746;2023-02-14T14:22:50;31.07;;;20.77;;
8632;SDS011;4354;49.832;10.746;2023-02-14T14:27:57;31.60;;;19.77;;
8632;SDS011;4354;49.832;10.746;2023-02-14T14:30:27;32.23;;;19.33;;
8632;SDS011;4354;49.832;10.746;2023-02-14T14:33:22;31.13;;;20.43;;
8632;SDS011;4354;49.832;10.746;2023-02-14T14:36:00;30.23;;;19.50;;
8632;SDS011;4354;49.832;10.746;2023-02-14T14:38:34;28.73;;;19.07;;
8632;SDS011;4354;49.832;10.746;2023-02-14T14:41:15;27.67;;;19.00;;
8632;SDS011;4354;49.832;10.746;2023-02-14T14:43:42;28.80;;;18.97;;
8632;SDS011;4354;49.832;10.746;2023-02-14T14:46:11;28.23;;;19.70;;
8632;SDS011;4354;49.832;10.746;2023-02-14T14:48:49;30.20;;;20.00;;
8632;SDS011;4354;49.832;10.746;2023-02-14T14:53:59;31.27;;;20.33;;
8632;SDS011;4354;49.832;10.746;2023-02-14T14:56:43;29.40;;;19.87;;
8632;SDS011;4354;49.832;10.746;2023-02-14T15:02:02;37.70;;;24.47;;
8632;SDS011;4354;49.832;10.746;2023-02-14T15:04:45;33.90;;;21.53;;
8632;SDS011;4354;49.832;10.746;2023-02-14T15:07:16;31.77;;;20.27;;
8632;SDS011;4354;49.832;10.746;2023-02-14T15:09:44;30.50;;;20.17;;
8632;SDS011;4354;49.832;10.746;2023-02-14T15:12:11;28.93;;;19.83;;
8632;SDS011;4354;49.832;10.746;2023-02-14T15:15:00;31.77;;;20.73;;
8632;SDS011;4354;49.832;10.746;2023-02-14T15:17:28;32.33;;;21.17;;
8632;SDS011;4354;49.832;10.746;2023-02-14T15:19:59;34.77;;;21.60;;
8632;SDS011;4354;49.832;10.746;2023-02-14T15:22:41;38.97;;;24.60;;
8632;SDS011;4354;49.832;10.746;2023-02-14T15:25:17;50.57;;;31.60;;
8632;SDS011;4354;49.832;10.746;2023-02-14T15:27:46;42.57;;;27.13;;
8632;SDS011;4354;49.832;10.746;2023-02-14T15:32:50;32.13;;;22.23;;
8632;SDS011;4354;49.832;10.746;2023-02-14T15:35:20;41.73;;;27.73;;
8632;SDS011;4354;49.832;10.746;2023-02-14T15:37:50;39.73;;;25.17;;
8632;SDS011;4354;49.832;10.746;2023-02-14T15:40:24;37.03;;;22.93;;
8632;SDS011;4354;49.832;10.746;2023-02-14T15:42:53;31.47;;;20.93;;
8632;SDS011;4354;49.832;10.746;2023-02-14T15:47:55;37.97;;;25.10;;
8632;SDS011;4354;49.832;10.746;2023-02-14T15:53:02;31.73;;;21.17;;
8632;SDS011;4354;49.832;10.746;2023-02-14T15:55:31;31.73;;;21.63;;
8632;SDS011;4354;49.832;10.746;2023-02-14T15:58:00;33.10;;;22.60;;
8632;SDS011;4354;49.832;10.746;2023-02-14T16:00:30;33.73;;;22.70;;
8632;SDS011;4354;49.832;10.746;2023-02-14T16:02:59;38.83;;;25.53;;
8632;SDS011;4354;49.832;10.746;2023-02-14T16:05:30;37.77;;;24.70;;
8632;SDS011;4354;49.832;10.746;2023-02-14T16:08:01;37.43;;;24.47;;
8632;SDS011;4354;49.832;10.746;2023-02-14T16:10:34;45.20;;;29.37;;
8632;SDS011;4354;49.832;10.746;2023-02-14T16:18:33;39.57;;;26.37;;
8632;SDS011;4354;49.832;10.746;2023-02-14T16:21:15;39.97;;;25.50;;
8632;SDS011;4354;49.832;10.746;2023-02-14T16:26:40;41.53;;;27.07;;
8632;SDS011;4354;49.832;10.746;2023-02-14T16:29:11;42.10;;;27.43;;
8632;SDS011;4354;49.832;10.746;2023-02-14T16:31:41;40.17;;;26.23;;
8632;SDS011;4354;49.832;10.746;2023-02-14T16:34:30;43.43;;;30.00;;
8632;SDS011;4354;49.832;10.746;2023-02-14T16:36:57;41.07;;;28.13;;
8632;SDS011;4354;49.832;10.746;2023-02-14T16:39:32;42.67;;;26.47;;
8632;SDS011;4354;49.832;10.746;2023-02-14T16:42:00;36.30;;;24.43;;
8632;SDS011;4354;49.832;10.746;2023-02-14T16:44:29;39.83;;;24.30;;
8632;SDS011;4354;49.832;10.746;2023-02-14T16:46:55;36.00;;;24.87;;
8632;SDS011;4354;49.832;10.746;2023-02-14T16:49:22;36.17;;;24.63;;
8632;SDS011;4354;49.832;10.746;2023-02-14T16:51:49;34.43;;;23.33;;
8632;SDS011;4354;49.832;10.746;2023-02-14T16:54:18;35.73;;;23.97;;
8632;SDS011;4354;49.832;10.746;2023-02-14T16:59:19;35.03;;;23.17;;
8632;SDS011;4354;49.832;10.746;2023-02-14T17:01:46;35.97;;;22.57;;
8632;SDS011;4354;49.832;10.746;2023-02-14T17:04:14;32.60;;;20.77;;
8632;SDS011;4354;49.832;10.746;2023-02-14T17:06:42;38.00;;;22.93;;
8632;SDS011;4354;49.832;10.746;2023-02-14T17:09:14;36.30;;;20.97;;
8632;SDS011;4354;49.832;10.746;2023-02-14T17:11:44;34.30;;;21.00;;
8632;SDS011;4354;49.832;10.746;2023-02-14T17:14:14;33.13;;;21.97;;
8632;SDS011;4354;49.832;10.746;2023-02-14T17:16:44;34.83;;;20.93;;
8632;SDS011;4354;49.832;10.746;2023-02-14T17:19:11;35.03;;;21.30;;
8632;SDS011;4354;49.832;10.746;2023-02-14T17:21:38;32.93;;;21.93;;
8632;SDS011;4354;49.832;10.746;2023-02-14T17:24:06;36.63;;;23.47;;
8632;SDS011;4354;49.832;10.746;2023-02-14T17:26:33;34.50;;;21.90;;
8632;SDS011;4354;49.832;10.746;2023-02-14T17:29:00;34.57;;;21.03;;
8632;SDS011;4354;49.832;10.746;2023-02-14T17:31:27;35.60;;;21.33;;
8632;SDS011;4354;49.832;10.746;2023-02-14T17:33:54;35.50;;;22.17;;
8632;SDS011;4354;49.832;10.746;2023-02-14T17:36:20;35.10;;;21.60;;
8632;SDS011;4354;49.832;10.746;2023-02-14T17:38:50;41.00;;;25.80;;
8632;SDS011;4354;49.832;10.746;2023-02-14T17:41:19;38.77;;;24.63;;
8632;SDS011;4354;49.832;10.746;2023-02-14T17:43:48;38.53;;;24.00;;
8632;SDS011;4354;49.832;10.746;2023-02-14T17:46:16;36.23;;;25.10;;
8632;SDS011;4354;49.832;10.746;2023-02-14T17:48:46;35.73;;;22.40;;
8632;SDS011;4354;49.832;10.746;2023-02-14T17:51:14;38.57;;;24.33;;
8632;SDS011;4354;49.832;10.746;2023-02-14T17:53:43;36.20;;;24.07;;
8632;SDS011;4354;49.832;10.746;2023-02-14T17:56:14;35.87;;;23.60;;